createdAt,value
2018-12-06T00:01:18.572Z,100986.73
2018-12-06T00:03:46.724Z,100976.08
2018-12-06T00:06:15.044Z,100988.15
2018-12-06T00:08:43.659Z,100976.05
2018-12-06T00:11:12.522Z,100977.86
2018-12-06T00:13:44.755Z,100982.52
2018-12-06T00:16:14.517Z,100972.37
2018-12-06T02:30:07.902Z,100955.08
2018-12-06T02:32:37.398Z,100954.59
2018-12-06T02:35:07.043Z,100952.72
2018-12-06T02:37:36.333Z,100943.73
2018-12-06T02:40:06.337Z,100942.88
2018-12-06T02:42:39.222Z,100940.55
2018-12-06T02:45:18.529Z,100945.47
2018-12-06T02:47:50.196Z,100940.98
2018-12-06T02:50:20.024Z,100950.16
2018-12-06T02:52:48.263Z,100937.21
2018-12-06T02:55:17.507Z,100943.61
2018-12-06T02:57:46.121Z,100944.73
2018-12-06T03:00:17.726Z,100944.20
2018-12-06T03:02:47.245Z,100947.61
2018-12-06T03:05:15.643Z,100900.38
2018-12-06T03:07:44.187Z,100949.19
2018-12-06T03:10:14.070Z,100943.28
2018-12-06T03:12:44.233Z,100938.59
2018-12-06T03:15:15.491Z,100892.45
2018-12-06T03:17:44.859Z,100935.60
2018-12-06T03:20:14.221Z,100936.73
2018-12-06T03:25:46.577Z,100939.33
2018-12-06T03:28:16.171Z,100932.28
2018-12-06T03:30:45.437Z,100929.77
2018-12-06T03:36:06.243Z,100880.80
2018-12-06T03:38:36.596Z,100939.39
2018-12-06T03:41:10.760Z,100938.75
2018-12-06T03:43:41.136Z,100944.25
2018-12-06T03:46:09.827Z,100942.60
2018-12-06T03:48:39.991Z,100946.32
2018-12-06T03:51:24.834Z,100940.22
2018-12-06T03:53:53.117Z,100938.97
2018-12-06T03:56:22.668Z,100931.95
2018-12-06T03:58:52.266Z,100929.94
2018-12-06T04:01:20.744Z,100931.70
2018-12-06T04:03:49.084Z,100943.48
2018-12-06T04:06:17.874Z,100946.03
2018-12-06T04:08:46.300Z,100948.41
2018-12-06T04:11:14.703Z,100948.58
2018-12-06T04:13:44.579Z,100945.67
2018-12-06T04:16:16.206Z,100953.85
2018-12-06T04:18:45.468Z,100905.52
2018-12-06T04:21:14.303Z,100947.29
2018-12-06T04:23:43.036Z,100960.45
2018-12-06T04:26:12.215Z,100952.41
2018-12-06T04:28:43.737Z,100949.10
2018-12-06T04:31:12.668Z,100950.03
2018-12-06T04:33:41.521Z,100956.69
2018-12-06T04:36:12.621Z,100947.92
2018-12-06T04:38:41.750Z,100951.20
2018-12-06T04:41:11.018Z,100955.42
2018-12-06T04:43:40.794Z,100956.34
2018-12-06T04:48:50.512Z,100973.88
2018-12-06T04:51:20.717Z,100971.91
2018-12-06T04:53:49.478Z,100970.19
2018-12-06T04:56:18.046Z,100973.27
2018-12-06T04:58:46.429Z,100972.28
2018-12-06T05:01:18.000Z,100981.34
2018-12-06T05:03:46.529Z,100975.29
2018-12-06T05:06:15.242Z,100974.66
2018-12-06T05:08:43.869Z,100975.09
2018-12-06T05:11:12.263Z,100980.31
2018-12-06T05:13:40.664Z,100982.01
2018-12-06T05:16:09.741Z,100979.98
2018-12-06T05:18:38.660Z,100981.59
2018-12-06T05:21:06.966Z,100992.32
2018-12-06T05:23:36.094Z,100993.23
2018-12-06T05:28:28.723Z,100984.53
2018-12-06T05:31:04.737Z,100986.53
2018-12-06T05:33:33.686Z,100977.75
2018-12-06T05:36:04.038Z,100988.08
2018-12-06T05:38:32.811Z,100989.70
2018-12-06T05:41:02.243Z,100988.35
2018-12-06T05:43:30.958Z,100989.14
2018-12-06T05:45:59.887Z,100998.97
2018-12-06T05:48:28.204Z,101005.69
2018-12-06T05:50:56.464Z,100959.23
2018-12-06T05:53:26.579Z,101015.70
2018-12-06T05:55:54.941Z,100665.82
2018-12-06T05:58:30.799Z,101009.79
2018-12-06T06:01:01.197Z,101021.13
2018-12-06T06:03:31.482Z,101021.05
2018-12-06T06:06:00.232Z,101028.28
2018-12-06T06:08:29.273Z,101028.93
2018-12-06T06:10:58.593Z,101019.36
2018-12-06T06:13:29.993Z,101021.67
2018-12-06T06:15:59.262Z,101008.69
2018-12-06T06:18:29.164Z,100960.33
2018-12-06T06:21:05.682Z,101009.22
2018-12-06T06:23:34.691Z,101016.29
2018-12-06T06:26:15.316Z,101033.59
2018-12-06T06:29:45.155Z,101047.58
2018-12-06T06:32:15.704Z,101038.77
2018-12-06T06:34:47.020Z,101046.34
2018-12-06T06:37:15.863Z,101043.87
2018-12-06T06:39:45.660Z,101052.84
2018-12-06T06:42:14.072Z,101061.27
2018-12-06T06:44:46.772Z,101073.52
2018-12-06T06:47:16.079Z,101087.61
2018-12-06T06:49:44.402Z,101077.41
2018-12-06T06:52:15.605Z,101087.19
2018-12-06T06:54:47.407Z,101098.58
2018-12-06T06:57:17.049Z,101091.63
2018-12-06T06:59:50.194Z,101089.42
2018-12-06T07:02:22.475Z,101092.30
2018-12-06T07:04:52.673Z,101091.52
2018-12-06T07:07:32.634Z,101100.08
2018-12-06T07:10:06.900Z,101106.99
2018-12-06T07:12:35.838Z,101112.25
2018-12-06T07:15:07.668Z,101112.75
2018-12-06T07:17:36.919Z,101120.31
2018-12-06T07:20:06.633Z,101127.88
2018-12-06T07:22:39.071Z,101115.88
2018-12-06T07:25:08.300Z,101114.14
2018-12-06T07:27:38.107Z,101118.73
2018-12-06T07:30:12.244Z,101129.99
2018-12-06T07:32:47.424Z,101131.60
2018-12-06T07:35:19.850Z,101132.81
2018-12-06T07:37:52.002Z,101138.15
2018-12-06T07:40:25.942Z,101129.83
2018-12-06T07:43:00.560Z,101134.84
2018-12-06T07:45:30.295Z,101146.66
2018-12-06T07:48:05.143Z,101152.80
2018-12-06T07:50:36.328Z,101143.74
2018-12-06T07:53:11.427Z,101148.27
2018-12-06T07:55:46.971Z,101152.97
2018-12-06T07:58:16.833Z,101153.28
2018-12-06T08:00:58.805Z,101167.61
2018-12-06T08:03:34.654Z,101165.13
2018-12-06T08:06:14.477Z,101163.80
2018-12-06T08:11:24.847Z,101164.38
2018-12-06T08:13:58.572Z,101157.47
2018-12-06T08:16:48.707Z,101158.74
2018-12-06T08:19:20.954Z,101166.27
2018-12-06T08:21:53.219Z,101156.59
2018-12-06T08:24:35.805Z,101156.85
2018-12-06T08:27:12.117Z,101148.97
2018-12-06T08:29:42.012Z,101144.61
2018-12-06T08:32:11.494Z,101147.70
2018-12-06T08:34:42.995Z,101150.53
2018-12-06T08:37:12.837Z,101157.54
2018-12-06T08:39:43.836Z,101148.05
2018-12-06T08:42:15.515Z,101164.81
2018-12-06T08:44:45.088Z,101171.36
2018-12-06T08:47:23.500Z,101163.11
2018-12-06T08:49:54.117Z,101169.63
2018-12-06T08:52:31.238Z,101173.94
2018-12-06T08:55:02.253Z,101176.27
2018-12-06T08:57:33.866Z,101178.66
2018-12-06T09:00:09.395Z,101178.88
2018-12-06T09:02:39.687Z,101178.31
2018-12-06T09:05:08.797Z,101186.17
2018-12-06T09:07:38.079Z,101180.70
2018-12-06T09:10:08.762Z,101179.69
2018-12-06T09:12:38.597Z,101176.23
2018-12-06T09:15:30.162Z,101174.41
2018-12-06T09:18:11.043Z,101166.04
2018-12-06T09:20:57.450Z,101162.77
2018-12-06T09:23:37.380Z,101157.73
2018-12-06T09:26:14.675Z,101158.91
2018-12-06T09:28:49.324Z,101160.59
2018-12-06T09:31:19.339Z,101160.55
2018-12-06T09:36:34.772Z,101182.94
2018-12-06T09:39:04.714Z,101188.55
2018-12-06T09:41:41.313Z,101197.38
2018-12-06T09:44:14.811Z,101199.54
2018-12-06T09:46:49.119Z,101196.84
2018-12-06T09:49:18.248Z,101201.07
2018-12-06T09:51:46.974Z,101203.91
2018-12-06T09:54:18.164Z,101214.84
2018-12-06T09:56:52.688Z,101228.49
2018-12-06T09:59:21.877Z,101217.90
2018-12-06T10:01:51.092Z,101216.34
2018-12-06T10:04:22.160Z,101214.30
2018-12-06T10:06:52.624Z,101221.67
2018-12-06T10:09:34.676Z,101221.45
2018-12-06T10:12:07.787Z,101219.83
2018-12-06T10:14:41.714Z,101225.33
2018-12-06T10:19:51.993Z,101218.38
2018-12-06T10:22:21.663Z,101211.71
2018-12-06T10:24:54.532Z,101217.50
2018-12-06T10:27:24.199Z,101211.25
2018-12-06T10:29:55.477Z,101212.20
2018-12-06T10:32:25.275Z,101217.70
2018-12-06T10:37:45.537Z,101222.57
2018-12-06T10:40:17.153Z,101224.97
2018-12-06T10:42:53.574Z,101229.39
2018-12-06T10:45:26.603Z,101225.34
2018-12-06T10:47:58.975Z,101234.79
2018-12-06T10:50:30.421Z,101239.84
2018-12-06T10:53:04.181Z,101229.75
2018-12-06T10:55:46.658Z,101222.08
2018-12-06T10:58:25.780Z,101219.63
2018-12-06T11:01:02.433Z,101216.59
2018-12-06T11:03:34.324Z,101219.36
2018-12-06T11:06:04.047Z,101214.93
2018-12-06T11:08:43.276Z,101218.47
2018-12-06T11:11:15.751Z,101218.33
2018-12-06T11:14:07.454Z,101215.22
2018-12-06T11:16:44.900Z,101224.84
2018-12-06T11:19:20.453Z,101224.61
2018-12-06T11:21:51.764Z,101222.84
2018-12-06T11:24:34.829Z,101230.61
2018-12-06T11:27:15.315Z,101233.21
2018-12-06T11:29:45.450Z,101236.93
2018-12-06T11:32:15.979Z,101235.38
2018-12-06T11:34:48.896Z,101248.08
2018-12-06T11:37:19.082Z,101252.17
2018-12-06T11:39:50.755Z,101257.43
2018-12-06T11:42:19.776Z,101257.01
2018-12-06T11:44:48.536Z,101262.41
2018-12-06T11:47:21.399Z,101252.45
2018-12-06T11:49:52.831Z,101254.92
2018-12-06T11:52:23.810Z,101256.12
2018-12-06T11:54:55.769Z,101264.38
2018-12-06T11:57:25.099Z,101264.45
2018-12-06T11:59:55.777Z,101266.14
2018-12-06T12:02:25.218Z,101254.43
2018-12-06T12:04:56.226Z,101268.88
2018-12-06T12:07:38.368Z,101261.94
2018-12-06T12:10:11.699Z,101258.06
2018-12-06T12:12:44.817Z,101255.16
2018-12-06T12:15:16.236Z,101260.38
2018-12-06T12:17:47.097Z,101254.48
2018-12-06T12:20:17.273Z,101251.02
2018-12-06T12:22:55.423Z,101248.05
2018-12-06T12:25:26.374Z,101256.30
2018-12-06T12:28:01.792Z,101259.92
2018-12-06T12:30:38.347Z,101252.11
2018-12-06T12:33:11.387Z,101259.99
2018-12-06T12:35:52.566Z,101252.31
2018-12-06T12:38:42.455Z,101257.78
2018-12-06T12:41:16.843Z,101259.48
2018-12-06T12:43:47.378Z,101252.00
2018-12-06T12:46:43.188Z,101245.72
2018-12-06T12:49:35.512Z,101242.50
2018-12-06T12:52:13.251Z,101238.34
2018-12-06T12:54:49.579Z,101231.53
2018-12-06T12:57:35.246Z,101238.55
2018-12-06T13:00:09.684Z,101236.87
2018-12-06T13:02:39.544Z,101237.35
2018-12-06T13:05:13.703Z,101229.22
2018-12-06T13:07:51.586Z,101233.87
2018-12-06T13:10:22.563Z,101234.03
2018-12-06T13:12:54.603Z,101232.36
2018-12-06T13:15:23.110Z,101227.30
2018-12-06T13:17:55.447Z,101225.98
2018-12-06T13:20:28.086Z,101231.86
2018-12-06T13:23:03.350Z,101229.42
2018-12-06T13:25:34.580Z,101228.52
2018-12-06T13:28:04.419Z,101226.06
2018-12-06T13:30:35.312Z,101232.31
2018-12-06T13:33:16.734Z,101233.95
2018-12-06T13:35:49.183Z,101224.06
2018-12-06T13:38:38.169Z,101221.37
2018-12-06T13:41:08.477Z,101222.92
2018-12-06T13:43:47.375Z,101221.58
2018-12-06T13:46:20.992Z,101224.53
2018-12-06T13:51:35.442Z,101220.99
2018-12-06T13:54:06.555Z,101217.84
2018-12-06T13:56:41.544Z,101221.50
2018-12-06T13:59:12.503Z,101225.95
2018-12-06T14:11:19.881Z,101235.98
2018-12-06T14:16:19.905Z,101226.70
2018-12-06T14:18:54.734Z,101224.28
2018-12-06T14:21:32.048Z,101220.03
2018-12-06T14:24:05.139Z,101225.45
2018-12-06T14:26:37.641Z,101221.81
2018-12-06T14:29:17.168Z,101232.08
2018-12-06T14:31:59.030Z,101234.97
2018-12-06T14:34:29.959Z,101237.06
2018-12-06T14:37:09.363Z,101236.86
2018-12-06T14:39:43.696Z,101233.13
2018-12-06T14:42:15.614Z,101232.42
2018-12-06T14:44:50.381Z,101249.14
2018-12-06T14:47:23.317Z,101247.42
2018-12-06T14:52:50.104Z,101256.38
2018-12-06T14:55:20.231Z,101240.09
2018-12-06T14:58:06.662Z,101243.52
2018-12-06T15:00:38.323Z,101245.38
2018-12-06T15:03:07.419Z,101241.55
2018-12-06T15:05:46.609Z,101240.47
2018-12-06T15:08:21.379Z,101240.65
2018-12-06T15:10:56.625Z,101257.11
2018-12-06T15:13:35.933Z,101250.30
2018-12-06T15:18:56.816Z,101243.66
2018-12-06T15:21:26.372Z,101241.88
2018-12-06T15:23:56.820Z,101243.71
2018-12-06T15:26:26.230Z,101242.31
2018-12-06T15:28:57.291Z,101242.05
2018-12-06T15:31:39.634Z,101240.36
2018-12-06T15:34:12.241Z,101239.63
2018-12-06T15:36:44.387Z,101238.90
2018-12-06T15:39:18.263Z,101234.53
2018-12-06T15:41:54.427Z,101231.47
2018-12-06T15:44:24.757Z,101233.03
2018-12-06T15:46:54.634Z,101235.28
2018-12-06T15:49:22.985Z,101227.28
2018-12-06T15:51:58.685Z,101230.94
2018-12-06T15:54:29.782Z,101234.97
2018-12-06T15:57:03.157Z,101228.98
2018-12-06T15:59:32.566Z,101226.80
2018-12-06T16:02:03.695Z,101227.17
2018-12-06T16:04:35.466Z,101235.78
2018-12-06T16:07:20.802Z,101232.40
2018-12-06T16:09:50.169Z,101230.30
2018-12-06T16:12:19.509Z,101228.08
2018-12-06T16:14:47.981Z,101224.17
2018-12-06T16:17:17.154Z,101224.61
2018-12-06T16:19:46.525Z,101222.10
2018-12-06T16:22:16.516Z,101211.90
2018-12-06T16:24:46.765Z,101216.05
2018-12-06T16:27:16.343Z,101220.33
2018-12-06T16:29:51.351Z,101213.73
2018-12-06T16:32:21.136Z,101213.13
2018-12-06T16:34:50.949Z,101214.32
2018-12-06T16:37:22.212Z,101219.42
2018-12-06T16:42:46.747Z,101211.39
2018-12-06T16:45:31.757Z,101210.91
2018-12-06T16:50:35.391Z,101225.25
2018-12-06T16:53:08.626Z,101222.13
2018-12-06T16:55:47.227Z,101218.28
2018-12-06T16:58:18.054Z,101215.89
2018-12-06T17:00:49.739Z,101217.26
2018-12-06T17:03:23.920Z,101215.31
2018-12-06T17:06:04.129Z,101215.80
2018-12-06T17:08:36.672Z,101221.81
2018-12-06T17:11:07.283Z,101220.55
2018-12-06T17:13:38.610Z,101210.58
2018-12-06T17:16:10.283Z,101023.33
2018-12-06T17:21:22.789Z,101211.34
2018-12-06T17:24:19.707Z,101202.72
2018-12-06T17:27:07.306Z,101213.01
2018-12-06T17:29:43.536Z,101211.64
2018-12-06T17:32:16.454Z,101210.13
2018-12-06T17:34:58.375Z,101210.23
2018-12-06T17:40:30.331Z,101214.75
2018-12-06T17:43:02.427Z,101208.16
2018-12-06T17:45:32.673Z,101213.23
2018-12-06T17:48:03.656Z,101214.26
2018-12-06T17:50:33.438Z,101216.91
2018-12-06T17:53:02.571Z,101214.27
2018-12-06T17:56:45.392Z,101155.66
2018-12-06T17:59:15.900Z,101203.36
2018-12-06T18:01:46.157Z,101202.66
2018-12-06T18:04:19.340Z,101203.03
2018-12-06T18:06:51.566Z,101196.27
2018-12-06T18:09:21.064Z,101200.59
2018-12-06T18:11:59.480Z,101198.86
2018-12-06T18:14:32.007Z,101200.94
2018-12-06T18:17:21.204Z,101205.19
2018-12-06T18:19:58.778Z,101201.66
2018-12-06T18:22:46.845Z,101204.52
2018-12-06T18:26:33.899Z,101202.56
2018-12-06T18:29:03.839Z,101196.80
2018-12-06T18:31:39.201Z,101202.59
2018-12-06T18:34:19.198Z,101198.53
2018-12-06T18:36:49.081Z,101196.37
2018-12-06T18:39:35.067Z,101198.91
2018-12-06T18:42:12.551Z,101204.02
2018-12-06T18:44:51.295Z,101196.88
2018-12-06T18:48:07.195Z,101198.02
2018-12-06T18:50:35.674Z,101195.95
2018-12-06T18:53:04.393Z,101196.81
2018-12-06T18:55:35.105Z,101191.05
2018-12-06T18:58:16.909Z,101194.20
2018-12-06T19:00:48.162Z,101202.13
2018-12-06T19:03:20.692Z,101202.74
2018-12-06T19:05:51.330Z,101201.26
2018-12-06T19:08:20.318Z,101204.32
2018-12-06T19:11:42.129Z,101198.63
2018-12-06T19:14:31.601Z,101204.46
2018-12-06T19:17:01.685Z,101197.64
2018-12-06T19:19:35.346Z,101192.52
2018-12-06T19:22:07.492Z,101192.16
2018-12-06T19:24:36.297Z,101187.05
2018-12-06T19:27:06.911Z,101192.48
2018-12-06T19:29:38.731Z,101192.13
2018-12-06T19:37:45.849Z,100997.23
2018-12-06T19:40:17.244Z,101188.27
2018-12-06T19:45:30.264Z,101190.70
2018-12-06T19:51:30.442Z,101191.57
2018-12-06T19:54:05.286Z,101194.48
2018-12-06T19:56:44.176Z,101191.55
2018-12-06T19:59:15.205Z,101192.41
2018-12-06T20:01:47.976Z,101193.05
2018-12-06T20:10:11.866Z,101177.27
2018-12-06T20:12:58.602Z,101178.80
2018-12-06T20:15:31.244Z,101188.00
2018-12-06T20:18:03.096Z,101187.28
2018-12-06T20:20:37.426Z,101189.09
2018-12-06T20:23:10.346Z,101191.42
2018-12-06T20:25:51.595Z,101188.91
2018-12-06T20:34:10.014Z,101174.66
2018-12-06T20:36:57.233Z,101174.71
2018-12-06T20:39:33.856Z,101165.45
2018-12-06T20:42:13.633Z,101169.59
2018-12-06T20:50:38.981Z,101163.70
2018-12-06T20:53:12.757Z,101169.94
2018-12-06T20:55:42.269Z,101159.68
2018-12-06T20:58:30.674Z,101153.34
2018-12-06T21:01:03.571Z,101161.31
2018-12-06T21:03:33.519Z,101147.90
2018-12-06T21:06:02.027Z,101153.27
2018-12-06T21:08:34.367Z,101151.80
2018-12-06T21:11:06.140Z,101152.42
2018-12-06T21:13:37.279Z,101153.47
2018-12-06T21:16:34.554Z,101150.82
2018-12-06T21:19:09.402Z,101144.58
2018-12-06T21:21:39.917Z,101145.07
2018-12-06T21:24:10.817Z,101147.41
2018-12-06T21:26:39.952Z,101153.05
2018-12-06T21:29:11.687Z,101145.07
2018-12-06T21:36:57.189Z,101147.41
2018-12-06T21:39:30.714Z,101144.38
2018-12-06T21:42:00.694Z,101153.85
2018-12-06T21:44:31.703Z,101153.77
2018-12-06T21:47:04.772Z,101153.12
2018-12-06T21:49:43.837Z,101149.24
2018-12-06T21:52:18.429Z,101150.06
2018-12-06T21:54:51.572Z,101137.00
2018-12-06T21:57:30.295Z,101136.67
2018-12-06T22:00:15.415Z,101133.77
2018-12-06T22:02:52.580Z,101131.95
2018-12-06T22:05:37.177Z,101137.05
2018-12-06T22:08:14.395Z,101124.33
2018-12-06T22:10:52.007Z,101122.06
2018-12-06T22:13:22.419Z,101126.84
2018-12-06T22:15:54.612Z,101115.94
2018-12-06T22:18:30.688Z,101117.20
2018-12-06T22:21:01.283Z,101112.88
2018-12-06T22:23:30.045Z,101119.83
2018-12-06T22:25:59.565Z,101110.73
2018-12-06T22:28:33.995Z,101112.86
2018-12-06T22:31:01.502Z,101116.06
2018-12-06T22:33:33.279Z,101122.19
2018-12-06T22:36:06.422Z,101121.20
2018-12-06T22:38:46.753Z,101121.64
2018-12-06T22:41:16.593Z,101121.87
2018-12-06T22:43:53.066Z,101117.71
2018-12-06T22:46:25.014Z,101122.78
2018-12-06T22:51:41.529Z,101127.12
2018-12-06T22:54:15.123Z,101126.80
2018-12-06T22:56:49.543Z,101129.66
2018-12-06T22:59:21.866Z,101135.69
2018-12-06T23:01:51.369Z,101132.34
2018-12-06T23:04:20.508Z,101130.62
2018-12-06T23:06:50.504Z,101129.25
2018-12-06T23:09:28.125Z,101125.08
2018-12-06T23:11:57.519Z,101122.34
2018-12-06T23:14:26.706Z,101113.50
2018-12-06T23:16:57.045Z,101125.59
2018-12-06T23:19:28.409Z,101115.08
2018-12-06T23:22:01.576Z,101118.43
2018-12-06T23:24:30.882Z,101122.45
2018-12-06T23:26:59.347Z,101109.38
2018-12-06T23:29:29.120Z,101110.05
2018-12-06T23:31:58.995Z,101117.70
2018-12-06T23:34:28.014Z,101112.88
2018-12-06T23:36:56.542Z,101106.49
2018-12-06T23:39:26.472Z,101120.73
2018-12-06T23:41:57.677Z,101116.44
2018-12-06T23:44:29.640Z,101109.03
2018-12-06T23:46:59.342Z,101103.53
2018-12-06T23:49:29.458Z,101102.80
2018-12-06T23:51:58.716Z,101100.72
2018-12-06T23:54:27.324Z,101092.19
2018-12-06T23:56:56.010Z,101087.50
2018-12-06T23:59:28.230Z,101084.81
